Time;durP1;ratioP1;P1;durP2;ratioP2;P2;SDS_P1;SDS_P2;PMS_P1;PMS_P2;Temp;Humidity;BMP_temperature;BMP_pressure;BME280_temperature;BME280_humidity;BME280_pressure;Samples;Min_cycle;Max_cycle;Signal;HPM_P1;HPM_P2
2020/12/22 00:03:36;;;;;;;15.00;7.47;;;;;;;5.07;65.71;100448.97;10498568;28;20048;-56
2020/12/22 00:08:37;;;;;;;19.00;7.57;;;;;;;5.05;65.78;100455.19;10498161;28;20407;-57
2020/12/22 00:13:39;;;;;;;18.50;8.27;;;;;;;4.94;65.78;100440.09;10497700;28;20370;-54
2020/12/22 00:18:42;;;;;;;17.45;7.80;;;;;;;4.89;65.97;100442.06;10497664;28;20049;-55
2020/12/22 00:23:43;;;;;;;17.05;8.25;;;;;;;4.82;66.59;100433.72;10496494;28;20102;-56
2020/12/22 00:28:45;;;;;;;18.27;8.27;;;;;;;4.68;65.82;100437.91;10497271;28;20054;-56
2020/12/22 00:33:48;;;;;;;21.08;10.50;;;;;;;4.65;66.42;100436.34;10497828;28;20048;-54
2020/12/22 00:38:49;;;;;;;16.65;7.47;;;;;;;4.64;66.21;100423.38;10497779;28;20048;-54
2020/12/22 00:43:51;;;;;;;17.05;8.18;;;;;;;4.55;66.22;100422.91;10496890;28;20087;-56
2020/12/22 00:48:53;;;;;;;19.58;8.32;;;;;;;4.60;65.98;100415.72;10463951;28;20056;-57
2020/12/22 00:53:58;;;;;;;19.35;8.95;;;;;;;4.57;66.13;100412.41;10455027;28;20069;-56
2020/12/22 00:59:00;;;;;;;21.60;9.55;;;;;;;4.58;66.56;100417.53;10483337;28;20060;-58
2020/12/22 01:04:03;;;;;;;23.00;8.45;;;;;;;4.57;66.52;100410.66;10497984;28;20052;-55
2020/12/22 01:09:05;;;;;;;20.55;8.82;;;;;;;4.44;66.28;100406.97;10496738;28;20055;-55
2020/12/22 01:14:08;;;;;;;20.35;9.35;;;;;;;4.39;66.91;100411.53;10496691;28;20044;-55
2020/12/22 01:19:10;;;;;;;20.42;8.98;;;;;;;4.42;66.15;100413.16;10496971;28;20045;-57
2020/12/22 01:24:12;;;;;;;23.00;10.65;;;;;;;4.43;66.77;100415.69;10497492;28;20087;-54
2020/12/22 01:29:14;;;;;;;17.23;8.30;;;;;;;4.39;65.82;100414.16;10504352;28;20396;-54
2020/12/22 01:34:17;;;;;;;27.05;10.50;;;;;;;4.28;66.58;100417.28;10545855;28;20109;-54
2020/12/22 01:39:18;;;;;;;27.90;12.27;;;;;;;4.27;66.60;100417.34;10544993;28;20058;-54
2020/12/22 01:44:20;;;;;;;27.63;9.43;;;;;;;4.26;66.30;100410.47;10530336;28;20049;-61
2020/12/22 01:49:24;;;;;;;28.73;11.23;;;;;;;4.17;66.18;100406.53;10503937;28;20044;-56
2020/12/22 01:54:27;;;;;;;26.10;11.70;;;;;;;4.12;66.49;100393.72;10503384;28;20048;-54
2020/12/22 01:59:28;;;;;;;29.88;11.90;;;;;;;4.20;66.43;100390.78;10503496;28;20485;-54
2020/12/22 02:04:31;;;;;;;38.75;11.10;;;;;;;4.13;66.36;100395.44;10504014;28;20048;-57
2020/12/22 02:09:33;;;;;;;23.97;9.80;;;;;;;4.15;66.60;100384.94;10504974;28;20425;-56
2020/12/22 02:14:35;;;;;;;26.15;10.38;;;;;;;4.14;66.71;100381.50;10503653;28;20420;-55
2020/12/22 02:19:38;;;;;;;26.17;10.60;;;;;;;4.10;66.50;100374.75;10502719;28;20057;-54
2020/12/22 02:24:40;;;;;;;21.70;9.68;;;;;;;4.04;66.58;100362.03;10502328;28;20373;-54
2020/12/22 02:29:42;;;;;;;29.35;12.50;;;;;;;4.01;66.84;100359.59;10506071;28;20493;-55
2020/12/22 02:34:44;;;;;;;36.38;12.70;;;;;;;4.01;66.60;100364.78;10545826;28;20366;-56
2020/12/22 02:39:47;;;;;;;69.05;13.88;;;;;;;4.02;66.36;100360.44;10545291;28;20217;-54
2020/12/22 02:44:48;;;;;;;68.43;16.20;;;;;;;3.79;66.44;100354.56;10545688;28;20046;-55
2020/12/22 02:49:50;;;;;;;51.83;12.25;;;;;;;3.71;66.75;100361.03;10544257;28;20066;-57
2020/12/22 02:54:52;;;;;;;55.05;14.25;;;;;;;3.62;66.29;100368.31;10543664;28;20142;-57
2020/12/22 02:59:54;;;;;;;45.40;10.90;;;;;;;3.63;66.18;100369.16;10541982;28;20077;-54
2020/12/22 03:04:56;;;;;;;48.38;14.48;;;;;;;3.63;66.59;100371.75;10542078;28;20049;-56
2020/12/22 03:09:58;;;;;;;40.60;12.50;;;;;;;3.66;65.84;100369.88;10543155;28;20048;-55
2020/12/22 03:15:00;;;;;;;32.17;13.77;;;;;;;3.64;66.48;100369.09;10546190;28;20093;-56
2020/12/22 03:20:02;;;;;;;33.55;12.82;;;;;;;3.60;66.40;100371.91;10542519;28;20048;-53
2020/12/22 03:25:05;;;;;;;35.28;12.50;;;;;;;3.59;65.87;100370.22;10547024;28;20526;-54
2020/12/22 03:30:09;;;;;;;34.90;11.82;;;;;;;3.58;66.05;100368.56;10499081;28;20059;-55
2020/12/22 03:35:12;;;;;;;30.92;12.57;;;;;;;3.47;65.97;100367.25;10542280;28;20404;-54
2020/12/22 03:40:16;;;;;;;28.63;12.50;;;;;;;3.45;65.80;100368.25;10517368;28;20505;-56
2020/12/22 03:45:18;;;;;;;29.17;11.82;;;;;;;3.28;65.93;100369.00;10500097;28;20044;-54
2020/12/22 03:50:19;;;;;;;18.40;8.23;;;;;;;3.16;66.08;100362.59;10498947;28;20053;-54
2020/12/22 03:55:22;;;;;;;23.17;9.73;;;;;;;2.99;65.97;100362.50;10498719;28;20049;-53
2020/12/22 04:00:24;;;;;;;28.50;11.77;;;;;;;2.97;66.35;100364.31;10497737;28;20114;-54
2020/12/22 04:05:25;;;;;;;23.33;11.07;;;;;;;2.95;66.06;100366.13;10498472;28;20484;-56
2020/12/22 04:10:28;;;;;;;24.58;12.10;;;;;;;2.86;66.07;100366.50;10498348;28;20500;-53
2020/12/22 04:15:29;;;;;;;27.33;12.10;;;;;;;2.86;66.37;100366.50;10498801;28;20041;-53
2020/12/22 04:20:31;;;;;;;25.33;10.10;;;;;;;2.82;66.19;100371.00;10498234;28;20063;-55
2020/12/22 04:25:33;;;;;;;22.33;9.77;;;;;;;2.76;65.96;100361.72;10499581;28;20094;-56
2020/12/22 04:30:35;;;;;;;24.10;10.40;;;;;;;2.80;65.98;100366.78;10497366;28;20048;-56
2020/12/22 04:35:37;;;;;;;26.27;10.75;;;;;;;2.79;65.97;100355.56;10497765;28;20055;-55
2020/12/22 04:40:39;;;;;;;21.38;9.57;;;;;;;2.84;66.45;100352.78;10497657;28;20516;-56
2020/12/22 04:45:41;;;;;;;22.23;9.80;;;;;;;2.85;66.21;100357.06;10497732;28;20044;-55
2020/12/22 04:50:45;;;;;;;14.23;6.60;;;;;;;2.67;65.51;100359.50;10496626;28;20068;-54
2020/12/22 04:55:47;;;;;;;19.85;9.35;;;;;;;2.54;66.24;100355.75;10497387;28;20055;-54
2020/12/22 05:00:50;;;;;;;20.48;8.18;;;;;;;2.52;66.02;100357.56;10498945;28;20433;-54
2020/12/22 05:05:55;;;;;;;23.25;8.90;;;;;;;2.44;66.30;100357.88;10500046;28;20140;-54
2020/12/22 05:10:57;;;;;;;20.20;9.18;;;;;;;2.39;66.06;100357.22;10480012;28;20063;-54
2020/12/22 05:15:59;;;;;;;20.30;9.65;;;;;;;2.34;66.04;100347.94;10504546;28;20063;-56
2020/12/22 05:21:01;;;;;;;17.95;9.23;;;;;;;2.36;65.95;100349.56;10505282;28;20059;-56
2020/12/22 05:26:03;;;;;;;17.70;9.13;;;;;;;2.26;65.82;100341.31;10504971;28;20044;-57
2020/12/22 05:31:12;;;;;;;17.20;8.25;;;;;;;2.22;66.04;100350.13;10519990;28;20154;-54
2020/12/22 05:36:14;;;;;;;14.45;6.57;;;;;;;2.28;66.42;100349.03;10547022;28;20039;-54
2020/12/22 05:41:19;;;;;;;17.48;8.57;;;;;;;2.24;65.91;100358.69;10528691;28;20397;-54
2020/12/22 05:46:27;;;;;;;18.15;8.75;;;;;;;2.27;66.22;100355.97;10503787;28;20051;-52
2020/12/22 05:51:31;;;;;;;15.50;7.57;;;;;;;2.34;66.03;100353.13;10503688;28;20098;-52
2020/12/22 05:56:34;;;;;;;22.33;9.60;;;;;;;2.36;66.25;100351.31;10463876;28;20526;-53
2020/12/22 06:01:36;;;;;;;16.67;6.53;;;;;;;2.25;65.67;100355.19;10462162;28;20425;-52
2020/12/22 06:06:38;;;;;;;17.80;8.13;;;;;;;2.21;66.14;100357.97;10461400;28;20044;-53
2020/12/22 06:11:40;;;;;;;17.55;8.60;;;;;;;2.17;66.25;100356.41;10460458;28;20060;-52
2020/12/22 06:16:42;;;;;;;14.48;6.68;;;;;;;2.12;66.25;100347.94;10478801;28;20078;-53
2020/12/22 06:21:44;;;;;;;15.18;7.00;;;;;;;2.12;65.97;100348.78;10502301;28;20064;-52
2020/12/22 06:26:46;;;;;;;18.88;9.55;;;;;;;2.22;66.33;100347.53;10502895;28;20048;-53
2020/12/22 06:31:48;;;;;;;18.33;9.63;;;;;;;2.25;66.06;100351.75;10503214;28;20056;-52
2020/12/22 06:36:57;;;;;;;17.20;8.32;;;;;;;2.26;66.04;100341.31;10502259;28;20049;-52
2020/12/22 06:41:59;;;;;;;17.45;8.45;;;;;;;2.19;65.86;100355.44;10471777;28;20060;-51
2020/12/22 06:47:03;;;;;;;18.27;8.25;;;;;;;2.31;66.55;100346.31;10460663;28;20041;-52
2020/12/22 06:52:32;;;;;;;16.17;7.80;;;;;;;2.42;65.96;100344.13;10460783;28;20052;-53
2020/12/22 06:57:44;;;;;;;16.92;7.25;;;;;;;2.42;65.30;100351.06;10475125;28;20066;-52
2020/12/22 07:02:46;;;;;;;14.10;7.43;;;;;;;2.26;65.83;100340.47;10500872;28;20052;-52
2020/12/22 07:07:58;;;;;;;14.73;7.45;;;;;;;2.10;65.55;100350.63;10500867;28;20055;-53
2020/12/22 07:13:00;;;;;;;14.23;7.65;;;;;;;1.94;66.07;100339.16;10500093;28;20183;-52
2020/12/22 07:18:15;;;;;;;13.30;5.57;;;;;;;1.92;66.29;100328.84;10500233;28;20048;-52
2020/12/22 07:23:16;;;;;;;14.38;6.72;;;;;;;1.91;65.97;100324.59;10501572;28;20067;-52
2020/12/22 07:28:19;;;;;;;13.70;6.78;;;;;;;1.93;65.41;100327.94;10499524;28;20094;-53
2020/12/22 07:33:21;;;;;;;35.92;8.13;;;;;;;1.74;65.99;100322.63;10499608;28;20049;-53
2020/12/22 07:38:22;;;;;;;8.73;4.13;;;;;;;1.73;65.27;100328.72;10499983;28;20049;-52
2020/12/22 07:43:25;;;;;;;12.68;5.75;;;;;;;1.55;65.74;100321.66;10499373;28;20508;-52
2020/12/22 07:48:26;;;;;;;9.90;4.20;;;;;;;1.50;65.58;100323.56;10500218;28;20052;-52
2020/12/22 07:53:28;;;;;;;8.88;3.65;;;;;;;1.51;65.69;100331.31;10462473;28;20055;-52
2020/12/22 07:58:32;;;;;;;9.38;4.50;;;;;;;1.54;65.82;100327.72;10456981;28;20123;-53
2020/12/22 08:03:34;;;;;;;11.80;4.85;;;;;;;1.66;65.65;100316.06;10457961;28;20045;-55
2020/12/22 08:08:36;;;;;;;8.95;3.80;;;;;;;1.76;65.68;100320.00;10459953;28;20051;-54
2020/12/22 08:13:40;;;;;;;10.75;3.92;;;;;;;1.54;65.04;100325.13;10458534;28;20049;-52
2020/12/22 08:18:42;;;;;;;8.32;3.90;;;;;;;1.49;65.39;100325.31;10457774;28;20049;-53
2020/12/22 08:23:44;;;;;;;7.50;3.47;;;;;;;1.26;64.88;100320.16;10458061;28;20394;-53
2020/12/22 08:28:55;;;;;;;8.70;4.50;;;;;;;1.22;65.72;100319.44;10483213;28;20363;-51
2020/12/22 08:33:59;;;;;;;7.15;3.85;;;;;;;1.31;65.12;100308.72;10496889;28;20139;-51
2020/12/22 08:39:28;;;;;;;6.03;2.65;;;;;;;1.11;65.01;100316.41;10497794;28;20094;-53
2020/12/22 08:44:31;;;;;;;8.85;4.47;;;;;;;0.88;64.47;100310.28;10462374;28;20060;-55
2020/12/22 08:49:33;;;;;;;10.55;4.10;;;;;;;0.91;65.51;100299.81;10497651;28;20056;-53
2020/12/22 08:54:35;;;;;;;8.70;4.50;;;;;;;1.13;65.32;100293.88;10496603;28;20048;-51
2020/12/22 08:59:37;;;;;;;10.10;5.20;;;;;;;1.30;65.03;100286.31;10498636;28;20060;-52
2020/12/22 09:04:40;;;;;;;8.63;4.32;;;;;;;1.19;64.44;100295.38;10492044;28;20052;-51
2020/12/22 09:09:41;;;;;;;10.32;4.70;;;;;;;1.06;64.81;100290.66;10495178;28;20059;-52
2020/12/22 09:14:46;;;;;;;3.70;1.52;;;;;;;1.03;64.62;100283.00;10497207;28;20149;-51
2020/12/22 09:19:48;;;;;;;11.93;5.43;;;;;;;1.01;65.16;100277.03;10496749;28;20059;-52
2020/12/22 09:24:51;;;;;;;8.67;3.67;;;;;;;1.27;64.68;100276.06;10495380;28;20495;-51
2020/12/22 09:29:54;;;;;;;9.93;3.93;;;;;;;1.05;63.39;100276.03;10495498;28;20613;-50
2020/12/22 09:34:56;;;;;;;8.63;4.05;;;;;;;0.81;64.46;100264.00;10499326;28;20416;-51
2020/12/22 09:39:57;;;;;;;9.95;3.22;;;;;;;0.86;64.92;100255.16;10495451;28;20059;-53
2020/12/22 09:45:00;;;;;;;10.20;5.13;;;;;;;0.76;64.61;100250.34;10496187;28;20045;-51
2020/12/22 09:50:02;;;;;;;11.90;4.63;;;;;;;0.86;64.37;100246.53;10501769;28;20122;-52
2020/12/22 09:55:03;;;;;;;9.25;3.95;;;;;;;0.89;64.21;100247.28;10504083;28;20362;-51
2020/12/22 10:00:06;;;;;;;8.48;4.28;;;;;;;0.72;63.95;100253.97;10503043;28;20071;-50
2020/12/22 10:05:08;;;;;;;8.93;3.97;;;;;;;0.50;64.11;100254.72;10502056;28;20056;-50
2020/12/22 10:10:09;;;;;;;9.20;3.80;;;;;;;0.51;64.75;100247.81;10501259;28;20040;-52
2020/12/22 10:15:12;;;;;;;8.90;4.35;;;;;;;0.37;63.68;100256.91;10500972;28;20068;-50
2020/12/22 10:20:13;;;;;;;10.02;4.43;;;;;;;0.31;64.29;100246.75;10460729;28;20101;-51
2020/12/22 10:25:15;;;;;;;9.60;4.45;;;;;;;0.28;64.04;100241.69;10493132;28;20560;-53
2020/12/22 10:30:17;;;;;;;11.43;4.75;;;;;;;0.21;64.01;100245.38;10500850;28;20048;-52
2020/12/22 10:35:19;;;;;;;7.95;3.53;;;;;;;0.23;64.28;100235.81;10502391;28;20432;-51
2020/12/22 10:40:21;;;;;;;10.40;4.85;;;;;;;0.18;64.21;100235.97;10500660;28;20051;-51
2020/12/22 10:45:24;;;;;;;8.43;3.85;;;;;;;0.16;64.35;100232.59;10500140;28;20075;-51
2020/12/22 10:50:25;;;;;;;10.13;3.47;;;;;;;0.22;64.22;100241.91;10501990;28;20481;-50
2020/12/22 10:55:27;;;;;;;9.60;4.45;;;;;;;0.03;63.98;100233.91;10501097;28;20290;-58
2020/12/22 11:00:30;;;;;;;11.40;5.55;;;;;;;0.10;64.39;100226.81;10502453;28;20489;-52
2020/12/22 11:10:52;;;;;;;5.70;2.45;;;;;;;0.01;64.45;100220.19;10499903;28;20060;-53
2020/12/22 11:15:54;;;;;;;5.35;2.30;;;;;;;-0.07;64.29;100227.34;10501918;28;20051;-52
2020/12/22 11:20:56;;;;;;;9.68;4.38;;;;;;;-0.15;64.45;100222.44;10501661;28;20152;-53
2020/12/22 11:25:58;;;;;;;11.75;5.25;;;;;;;-0.05;64.16;100223.81;10500139;28;20048;-52
2020/12/22 11:31:02;;;;;;;13.23;5.47;;;;;;;0.05;63.97;100220.94;10513047;28;20056;-50
2020/12/22 11:36:03;;;;;;;11.68;5.55;;;;;;;0.18;64.22;100217.03;10541905;28;20044;-52
2020/12/22 11:41:05;;;;;;;13.02;5.97;;;;;;;0.20;63.95;100234.19;10542069;28;20056;-51
2020/12/22 11:46:09;;;;;;;11.82;5.03;;;;;;;0.23;63.94;100225.47;10541963;28;20105;-59
2020/12/22 11:51:16;;;;;;;12.85;5.65;;;;;;;0.15;64.32;100235.22;10541095;28;20396;-51
2020/12/22 11:56:17;;;;;;;13.43;6.40;;;;;;;0.13;64.32;100227.53;10495211;28;20148;-53
2020/12/22 12:01:27;;;;;;;14.60;5.80;;;;;;;0.18;64.16;100225.63;10463926;28;20126;-51
2020/12/22 12:06:28;;;;;;;16.15;7.40;;;;;;;-0.01;64.23;100225.41;10496899;28;20105;-52
2020/12/22 12:11:30;;;;;;;16.52;7.85;;;;;;;0.14;64.65;100228.38;10496829;28;20052;-52
2020/12/22 12:16:33;;;;;;;16.23;7.65;;;;;;;0.25;64.42;100239.22;10499320;28;20044;-51
2020/12/22 12:21:35;;;;;;;16.57;6.93;;;;;;;0.32;64.46;100224.31;10498155;28;20059;-52
2020/12/22 12:26:37;;;;;;;15.40;7.00;;;;;;;0.50;64.72;100220.25;10496709;28;20054;-57
2020/12/22 12:31:40;;;;;;;18.52;8.25;;;;;;;0.72;63.94;100215.16;10518268;28;20048;-52
2020/12/22 12:36:42;;;;;;;16.20;7.35;;;;;;;0.74;64.04;100209.03;10538041;28;20123;-52
2020/12/22 12:41:48;;;;;;;14.45;6.75;;;;;;;0.57;64.17;100216.53;10540854;28;20574;-52
2020/12/22 12:46:53;;;;;;;15.38;7.05;;;;;;;0.33;64.04;100206.16;10539845;28;20058;-52
2020/12/22 12:51:54;;;;;;;15.73;6.30;;;;;;;0.22;64.28;100210.88;10538689;28;20059;-52
2020/12/22 12:56:56;;;;;;;17.50;7.60;;;;;;;0.18;64.27;100204.09;10537806;28;20055;-51
2020/12/22 13:01:58;;;;;;;17.85;8.45;;;;;;;0.09;64.51;100201.84;10525472;28;20063;-52
2020/12/22 13:07:00;;;;;;;18.70;8.07;;;;;;;0.07;64.58;100212.25;10494296;28;20049;-51
2020/12/22 13:12:01;;;;;;;16.60;8.00;;;;;;;0.15;64.39;100197.28;10497123;28;20052;-52
2020/12/22 13:17:05;;;;;;;16.02;6.80;;;;;;;0.19;64.58;100185.97;10497215;28;20052;-52
2020/12/22 13:22:07;;;;;;;17.92;7.75;;;;;;;0.26;64.17;100181.41;10502238;28;20044;-60
2020/12/22 13:27:09;;;;;;;16.92;7.82;;;;;;;0.30;64.08;100175.22;10505341;28;20052;-51
2020/12/22 13:32:12;;;;;;;9.13;3.65;;;;;;;0.24;63.41;100178.03;10526701;28;20075;-51
2020/12/22 13:37:13;;;;;;;18.65;7.65;;;;;;;0.08;64.46;100171.72;10538640;28;20048;-50
2020/12/22 13:42:15;;;;;;;13.93;6.05;;;;;;;0.13;64.50;100172.41;10502651;28;20054;-51
2020/12/22 13:47:18;;;;;;;19.02;8.65;;;;;;;0.13;64.25;100175.84;10503877;28;20052;-51
2020/12/22 13:52:19;;;;;;;19.02;8.35;;;;;;;0.34;64.25;100166.50;10503364;28;20048;-52
2020/12/22 13:57:21;;;;;;;21.75;9.48;;;;;;;0.16;63.38;100164.56;10503603;28;20063;-53
2020/12/22 14:02:24;;;;;;;21.95;9.52;;;;;;;0.16;64.16;100167.13;10502903;28;20059;-53
2020/12/22 14:07:25;;;;;;;19.15;8.20;;;;;;;0.14;63.94;100161.16;10501853;28;20098;-53
2020/12/22 14:12:27;;;;;;;19.30;7.40;;;;;;;0.14;63.83;100158.56;10503341;28;20055;-53
2020/12/22 14:17:29;;;;;;;16.75;7.88;;;;;;;0.11;64.31;100156.09;10502308;28;20055;-52
2020/12/22 14:22:31;;;;;;;21.52;8.82;;;;;;;0.23;63.90;100150.50;10502060;28;20093;-51
2020/12/22 14:27:33;;;;;;;17.60;7.28;;;;;;;0.15;63.70;100142.16;10505640;28;20153;-53
2020/12/22 14:32:35;;;;;;;17.55;6.00;;;;;;;0.05;63.74;100133.03;10503708;28;20056;-54
2020/12/22 14:37:37;;;;;;;16.58;7.63;;;;;;;-0.13;63.86;100124.19;10479207;28;20045;-52
2020/12/22 14:42:39;;;;;;;16.88;7.05;;;;;;;-0.17;63.65;100125.19;10460837;28;20052;-53
2020/12/22 14:47:42;;;;;;;15.85;6.25;;;;;;;-0.38;63.51;100121.59;10468963;28;20485;-52
2020/12/22 14:52:44;;;;;;;15.35;7.47;;;;;;;-0.56;63.53;100115.28;10502180;28;20059;-54
2020/12/22 14:57:45;;;;;;;17.17;7.07;;;;;;;-0.58;63.81;100110.19;10501613;28;20110;-53
2020/12/22 15:02:48;;;;;;;14.80;6.55;;;;;;;-0.49;64.11;100124.56;10490076;28;20101;-51
2020/12/22 15:07:52;;;;;;;17.52;7.13;;;;;;;-0.48;64.10;100116.75;10485927;28;20113;-52
2020/12/22 15:12:53;;;;;;;16.40;7.10;;;;;;;-0.49;64.12;100109.06;10499631;28;20121;-52
2020/12/22 15:17:56;;;;;;;13.45;5.45;;;;;;;-0.48;63.60;100108.16;10500086;28;20040;-52
2020/12/22 15:22:58;;;;;;;15.63;7.13;;;;;;;-0.60;63.88;100114.56;10499698;28;20481;-52
2020/12/22 15:28:00;;;;;;;12.18;4.53;;;;;;;-0.67;63.61;100113.09;10500144;28;20412;-52
2020/12/22 15:33:02;;;;;;;15.73;5.30;;;;;;;-0.73;63.91;100102.94;10530100;28;20056;-52
2020/12/22 15:38:04;;;;;;;10.15;4.38;;;;;;;-0.84;63.92;100095.53;10540916;28;20048;-51
2020/12/22 15:43:06;;;;;;;15.98;6.38;;;;;;;-0.86;63.85;100096.47;10537681;28;20508;-51
2020/12/22 15:48:08;;;;;;;13.98;5.63;;;;;;;-0.82;63.97;100095.50;10504546;28;20439;-58
2020/12/22 15:53:11;;;;;;;20.38;7.57;;;;;;;-0.75;64.56;100097.00;10498952;28;20044;-51
2020/12/22 15:58:12;;;;;;;14.88;6.85;;;;;;;-0.64;64.67;100091.50;10499021;28;20057;-54
2020/12/22 16:03:15;;;;;;;13.23;6.30;;;;;;;-0.67;64.37;100078.69;10497851;28;20051;-51
2020/12/22 16:08:16;;;;;;;12.15;5.90;;;;;;;-0.59;63.83;100072.34;10497355;28;20072;-53
2020/12/22 16:13:18;;;;;;;12.00;5.90;;;;;;;-0.59;63.87;100063.75;10472197;28;20080;-51
2020/12/22 16:18:21;;;;;;;13.02;5.47;;;;;;;-0.56;64.52;100067.06;10471458;28;20472;-52
2020/12/22 16:23:23;;;;;;;14.70;6.30;;;;;;;-0.39;64.34;100061.34;10496654;28;20040;-51
2020/12/22 16:28:24;;;;;;;15.30;6.10;;;;;;;-0.47;63.81;100056.44;10497968;28;20504;-51
2020/12/22 16:33:27;;;;;;;20.73;7.85;;;;;;;-0.33;64.47;100053.38;10498085;28;20477;-51
2020/12/22 16:38:29;;;;;;;16.23;7.60;;;;;;;-0.15;64.24;100051.91;10497220;28;20428;-51
2020/12/22 16:43:31;;;;;;;12.00;5.15;;;;;;;-0.08;63.99;100052.53;10498170;28;20384;-52
2020/12/22 16:48:33;;;;;;;11.05;5.10;;;;;;;-0.20;64.00;100038.28;10497435;28;20048;-51
2020/12/22 16:53:35;;;;;;;12.18;5.35;;;;;;;-0.14;64.25;100035.50;10496819;28;20078;-52
2020/12/22 16:58:37;;;;;;;12.38;5.05;;;;;;;-0.01;64.31;100035.88;10496174;28;20448;-51
2020/12/22 17:03:42;;;;;;;11.98;4.97;;;;;;;0.07;63.91;100030.44;10494389;28;20125;-51
2020/12/22 17:08:43;;;;;;;14.50;6.53;;;;;;;0.08;64.22;100027.78;10495766;28;20044;-52
2020/12/22 17:13:45;;;;;;;13.98;6.45;;;;;;;0.16;64.00;100022.34;10496547;28;20378;-54
2020/12/22 17:18:48;;;;;;;14.82;6.75;;;;;;;0.22;63.83;100024.72;10498127;28;20063;-52
2020/12/22 17:23:50;;;;;;;15.60;5.50;;;;;;;0.21;63.65;100017.84;10492387;28;20444;-52
2020/12/22 17:28:52;;;;;;;12.65;5.97;;;;;;;0.28;64.10;100018.44;10496645;28;20307;-52
2020/12/22 17:33:54;;;;;;;12.52;6.18;;;;;;;0.37;64.18;100008.63;10493776;28;20072;-52
2020/12/22 17:38:56;;;;;;;12.00;6.35;;;;;;;0.59;63.91;100002.63;10496146;28;20059;-52
2020/12/22 17:43:58;;;;;;;12.55;6.28;;;;;;;0.65;63.52;100003.19;10494672;28;20220;-51
2020/12/22 17:49:01;;;;;;;14.02;6.47;;;;;;;0.57;63.82;100005.25;10495812;28;20532;-56
2020/12/22 17:54:02;;;;;;;16.55;6.70;;;;;;;0.57;63.82;100005.25;10493303;28;20049;-51
2020/12/22 17:59:04;;;;;;;14.70;6.25;;;;;;;0.48;64.43;99997.00;10496508;28;20056;-52
2020/12/22 18:04:07;;;;;;;9.43;3.50;;;;;;;0.56;64.31;99988.03;10494993;28;20045;-52
2020/12/22 18:09:08;;;;;;;11.05;5.53;;;;;;;0.49;64.07;99990.91;10498390;28;20139;-51
2020/12/22 18:14:10;;;;;;;15.63;6.75;;;;;;;0.54;64.00;99981.25;10500056;28;20058;-55
2020/12/22 18:19:13;;;;;;;13.13;6.72;;;;;;;0.62;64.03;99986.97;10502448;28;20053;-51
2020/12/22 18:24:15;;;;;;;14.63;6.22;;;;;;;0.65;63.76;99986.84;10501912;28;20135;-51
2020/12/22 18:29:17;;;;;;;12.30;5.75;;;;;;;0.75;63.98;99980.38;10503405;28;20054;-53
2020/12/22 18:34:19;;;;;;;12.27;6.20;;;;;;;0.92;63.71;99971.91;10540655;28;20063;-51
2020/12/22 18:39:21;;;;;;;12.63;5.20;;;;;;;0.89;63.58;99970.31;10542521;28;20106;-52
2020/12/22 18:44:22;;;;;;;11.00;5.20;;;;;;;0.84;64.07;99971.41;10537444;28;20040;-56
2020/12/22 18:49:25;;;;;;;12.57;4.88;;;;;;;0.87;63.70;99977.31;10469191;28;20444;-52
2020/12/22 18:54:27;;;;;;;11.90;5.10;;;;;;;0.86;64.18;99967.88;10457222;28;20506;-51
2020/12/22 18:59:28;;;;;;;13.30;5.40;;;;;;;1.04;64.01;99962.81;10494872;28;20064;-51
2020/12/22 19:04:31;;;;;;;17.80;7.00;;;;;;;1.24;63.60;99944.69;10497785;28;20063;-52
2020/12/22 19:09:32;;;;;;;14.90;5.53;;;;;;;1.28;63.33;99948.81;10500131;28;20048;-53
2020/12/22 19:14:34;;;;;;;12.88;5.55;;;;;;;1.19;64.08;99956.16;10499900;28;20201;-52
2020/12/22 19:19:36;;;;;;;9.65;4.18;;;;;;;1.08;63.71;99951.44;10498854;28;20459;-51
2020/12/22 19:24:38;;;;;;;12.93;6.38;;;;;;;1.02;64.52;99944.75;10500463;28;20059;-52
2020/12/22 19:29:40;;;;;;;11.18;4.43;;;;;;;1.01;64.37;99943.06;10499367;28;20072;-51
2020/12/22 19:34:42;;;;;;;14.18;6.10;;;;;;;1.09;64.60;99935.00;10497737;28;20048;-51
2020/12/22 19:39:46;;;;;;;13.43;5.95;;;;;;;1.17;64.03;99943.28;10497574;28;20055;-58
2020/12/22 19:44:48;;;;;;;12.68;5.90;;;;;;;1.22;64.44;99945.66;10498080;28;20049;-51
2020/12/22 19:49:50;;;;;;;12.23;5.63;;;;;;;1.22;64.09;99935.31;10496590;28;20044;-51
2020/12/22 19:54:52;;;;;;;10.77;5.05;;;;;;;1.21;63.81;99931.03;10497019;28;20055;-53
2020/12/22 19:59:54;;;;;;;13.55;5.38;;;;;;;1.19;64.18;99936.28;10496255;28;20062;-51
2020/12/22 20:04:56;;;;;;;12.13;4.97;;;;;;;1.06;64.42;99943.72;10496263;28;20480;-52
2020/12/22 20:09:58;;;;;;;12.63;6.45;;;;;;;1.04;64.29;99931.75;10497568;28;20052;-52
2020/12/22 20:15:00;;;;;;;11.15;4.90;;;;;;;1.07;63.73;99927.28;10496631;28;20112;-53
2020/12/22 20:20:04;;;;;;;12.68;6.10;;;;;;;1.05;64.02;99936.03;10496826;28;20059;-53
2020/12/22 20:25:05;;;;;;;13.98;5.82;;;;;;;1.09;63.92;99935.81;10496585;28;20056;-51
2020/12/22 20:30:07;;;;;;;14.45;5.95;;;;;;;1.17;63.67;99938.09;10499412;28;20050;-51
2020/12/22 20:35:09;;;;;;;11.85;4.60;;;;;;;1.10;64.47;99941.84;10513936;28;20056;-52
2020/12/22 20:40:11;;;;;;;23.50;9.93;;;;;;;1.24;64.64;99936.94;10494484;28;20412;-52
2020/12/22 20:45:12;;;;;;;14.90;7.60;;;;;;;1.35;63.88;99933.84;10496392;28;20114;-51
2020/12/22 20:50:15;;;;;;;17.35;6.57;;;;;;;1.50;64.29;99930.59;10494198;28;20046;-52
2020/12/22 20:55:17;;;;;;;11.38;5.05;;;;;;;1.53;64.33;99924.44;10494352;28;20508;-52
2020/12/22 21:00:20;;;;;;;14.40;6.85;;;;;;;1.40;63.71;99912.94;10495054;28;20057;-52
2020/12/22 21:05:23;;;;;;;16.38;8.23;;;;;;;1.40;64.32;99912.94;10495951;28;20098;-53
2020/12/22 21:10:25;;;;;;;20.33;9.13;;;;;;;1.48;64.60;99916.88;10494871;28;20080;-52
2020/12/22 21:15:27;;;;;;;10.20;4.10;;;;;;;1.34;63.51;99908.88;10494815;28;20049;-52
2020/12/22 21:20:29;;;;;;;12.70;6.20;;;;;;;1.01;63.70;99900.81;10492933;28;20052;-52
2020/12/22 21:25:34;;;;;;;12.23;4.82;;;;;;;0.93;64.09;99887.38;10495916;28;20044;-52
2020/12/22 21:30:35;;;;;;;14.32;5.85;;;;;;;0.77;63.94;99875.09;10494943;28;20055;-55
2020/12/22 21:35:38;;;;;;;11.27;5.22;;;;;;;0.74;64.03;99866.56;10494212;28;20125;-53
2020/12/22 21:40:39;;;;;;;15.40;6.47;;;;;;;0.78;64.16;99863.81;10494457;28;20047;-51
2020/12/22 21:45:41;;;;;;;14.60;6.00;;;;;;;0.89;63.63;99863.34;10501578;28;20045;-51
2020/12/22 21:50:44;;;;;;;16.25;7.25;;;;;;;0.78;63.29;99862.97;10500317;28;20056;-51
2020/12/22 21:55:46;;;;;;;13.55;5.30;;;;;;;0.82;64.45;99854.16;10500814;28;20476;-51
2020/12/22 22:00:47;;;;;;;14.30;6.05;;;;;;;0.86;64.06;99856.56;10500018;28;20095;-51
2020/12/22 22:05:50;;;;;;;12.77;5.18;;;;;;;0.79;63.88;99855.13;10500711;28;20052;-52
2020/12/22 22:10:51;;;;;;;15.20;6.22;;;;;;;0.76;63.98;99850.09;10500962;28;20045;-51
2020/12/22 22:15:53;;;;;;;14.73;5.53;;;;;;;0.77;64.01;99858.69;10498817;28;20512;-51
2020/12/22 22:20:56;;;;;;;18.40;6.40;;;;;;;0.91;64.29;99859.78;10501371;28;20036;-51
2020/12/22 22:25:57;;;;;;;8.60;3.15;;;;;;;0.99;64.35;99850.88;10500673;28;20560;-51
2020/12/22 22:31:00;;;;;;;16.83;7.37;;;;;;;0.84;63.89;99848.03;10500994;28;20053;-51
2020/12/22 22:36:03;;;;;;;14.13;6.25;;;;;;;0.87;64.36;99847.06;10500308;28;20063;-51
2020/12/22 22:41:04;;;;;;;15.88;7.65;;;;;;;1.05;64.28;99837.66;10499071;28;20059;-52
2020/12/22 22:46:11;;;;;;;17.88;7.80;;;;;;;1.13;64.03;99841.56;10499410;28;20048;-51
2020/12/22 22:51:14;;;;;;;15.70;6.25;;;;;;;1.08;63.84;99825.41;10499288;28;20374;-51
2020/12/22 22:56:19;;;;;;;13.20;6.20;;;;;;;1.03;63.64;99817.00;10497849;28;20069;-51
2020/12/22 23:01:21;;;;;;;20.00;7.15;;;;;;;1.12;64.07;99805.41;10499965;28;20155;-51
2020/12/22 23:06:23;;;;;;;11.90;5.03;;;;;;;1.14;64.10;99801.84;10500769;28;20048;-51
2020/12/22 23:11:25;;;;;;;12.15;6.05;;;;;;;1.14;64.21;99798.41;10498342;28;20048;-52
2020/12/22 23:16:26;;;;;;;15.57;5.88;;;;;;;1.23;63.94;99791.94;10500321;28;20378;-51
2020/12/22 23:21:29;;;;;;;13.10;5.63;;;;;;;1.26;64.37;99795.28;10498888;28;20899;-52